sensor_id;sensor_type;location;lat;lon;timestamp;temperature;humidity
52381;DHT22;38310;52.796;6.942;2023-01-04T00:01:33;7.80;99.90
52381;DHT22;38310;52.796;6.942;2023-01-04T00:03:59;8.50;99.90
52381;DHT22;38310;52.796;6.942;2023-01-04T00:06:25;7.80;99.90
52381;DHT22;38310;52.796;6.942;2023-01-04T00:08:51;8.30;99.90
52381;DHT22;38310;52.796;6.942;2023-01-04T00:11:19;6.60;99.90
52381;DHT22;38310;52.796;6.942;2023-01-04T00:13:46;7.80;99.90
52381;DHT22;38310;52.796;6.942;2023-01-04T00:16:15;8.20;99.90
52381;DHT22;38310;52.796;6.942;2023-01-04T00:18:41;7.70;99.90
52381;DHT22;38310;52.796;6.942;2023-01-04T00:21:21;7.80;99.90
52381;DHT22;38310;52.796;6.942;2023-01-04T00:23:49;7.80;99.90
52381;DHT22;38310;52.796;6.942;2023-01-04T00:26:18;7.70;99.90
52381;DHT22;38310;52.796;6.942;2023-01-04T00:28:44;7.80;99.90
52381;DHT22;38310;52.796;6.942;2023-01-04T00:31:12;7.80;99.90
52381;DHT22;38310;52.796;6.942;2023-01-04T00:33:38;7.80;99.90
52381;DHT22;38310;52.796;6.942;2023-01-04T00:36:05;7.80;99.90
52381;DHT22;38310;52.796;6.942;2023-01-04T00:38:32;8.50;99.90
52381;DHT22;38310;52.796;6.942;2023-01-04T00:40:58;7.80;99.90
52381;DHT22;38310;52.796;6.942;2023-01-04T00:43:24;7.80;99.90
52381;DHT22;38310;52.796;6.942;2023-01-04T00:45:50;7.80;99.90
52381;DHT22;38310;52.796;6.942;2023-01-04T00:48:16;8.00;99.90
52381;DHT22;38310;52.796;6.942;2023-01-04T00:50:43;7.80;99.90
52381;DHT22;38310;52.796;6.942;2023-01-04T00:53:10;7.80;99.90
52381;DHT22;38310;52.796;6.942;2023-01-04T00:55:36;7.80;99.90
52381;DHT22;38310;52.796;6.942;2023-01-04T00:58:02;7.70;99.90
52381;DHT22;38310;52.796;6.942;2023-01-04T01:00:28;7.60;99.90
52381;DHT22;38310;52.796;6.942;2023-01-04T01:02:53;7.60;99.90
52381;DHT22;38310;52.796;6.942;2023-01-04T01:05:19;7.60;99.90
52381;DHT22;38310;52.796;6.942;2023-01-04T01:07:45;7.50;99.90
52381;DHT22;38310;52.796;6.942;2023-01-04T01:10:10;7.50;99.90
52381;DHT22;38310;52.796;6.942;2023-01-04T01:12:36;7.50;99.90
52381;DHT22;38310;52.796;6.942;2023-01-04T01:15:02;7.50;99.90
52381;DHT22;38310;52.796;6.942;2023-01-04T01:17:28;7.50;99.90
52381;DHT22;38310;52.796;6.942;2023-01-04T01:19:53;7.50;99.90
52381;DHT22;38310;52.796;6.942;2023-01-04T01:22:19;7.50;99.90
52381;DHT22;38310;52.796;6.942;2023-01-04T01:24:45;7.50;99.90
52381;DHT22;38310;52.796;6.942;2023-01-04T01:27:10;7.50;99.90
52381;DHT22;38310;52.796;6.942;2023-01-04T01:29:36;7.60;99.90
52381;DHT22;38310;52.796;6.942;2023-01-04T01:32:02;7.60;99.90
52381;DHT22;38310;52.796;6.942;2023-01-04T01:34:28;7.60;99.90
52381;DHT22;38310;52.796;6.942;2023-01-04T01:36:53;8.30;99.90
52381;DHT22;38310;52.796;6.942;2023-01-04T01:39:19;7.60;99.90
52381;DHT22;38310;52.796;6.942;2023-01-04T01:41:45;7.60;99.90
52381;DHT22;38310;52.796;6.942;2023-01-04T01:46:47;7.50;99.90
52381;DHT22;38310;52.796;6.942;2023-01-04T01:49:31;7.70;99.90
52381;DHT22;38310;52.796;6.942;2023-01-04T01:52:01;7.60;99.90
52381;DHT22;38310;52.796;6.942;2023-01-04T01:54:34;7.50;99.90
52381;DHT22;38310;52.796;6.942;2023-01-04T01:57:03;7.50;99.90
52381;DHT22;38310;52.796;6.942;2023-01-04T01:59:31;6.50;99.90
52381;DHT22;38310;52.796;6.942;2023-01-04T02:01:58;7.40;99.90
52381;DHT22;38310;52.796;6.942;2023-01-04T02:04:24;7.70;99.90
52381;DHT22;38310;52.796;6.942;2023-01-04T02:06:52;7.60;99.90
52381;DHT22;38310;52.796;6.942;2023-01-04T02:09:20;7.50;99.90
52381;DHT22;38310;52.796;6.942;2023-01-04T02:11:47;6.80;99.90
52381;DHT22;38310;52.796;6.942;2023-01-04T02:14:13;7.50;99.90
52381;DHT22;38310;52.796;6.942;2023-01-04T02:35:42;7.50;99.90
52381;DHT22;38310;52.796;6.942;2023-01-04T02:38:27;7.60;99.90
52381;DHT22;38310;52.796;6.942;2023-01-04T02:40:57;7.60;99.90
52381;DHT22;38310;52.796;6.942;2023-01-04T02:43:32;7.60;99.90
52381;DHT22;38310;52.796;6.942;2023-01-04T02:46:27;7.60;99.90
52381;DHT22;38310;52.796;6.942;2023-01-04T02:48:53;7.60;99.90
52381;DHT22;38310;52.796;6.942;2023-01-04T02:51:41;7.60;99.90
52381;DHT22;38310;52.796;6.942;2023-01-04T02:54:20;7.70;99.90
52381;DHT22;38310;52.796;6.942;2023-01-04T02:56:57;7.70;99.90
52381;DHT22;38310;52.796;6.942;2023-01-04T02:59:48;7.60;99.90
52381;DHT22;38310;52.796;6.942;2023-01-04T03:08:40;7.70;99.90
52381;DHT22;38310;52.796;6.942;2023-01-04T03:11:13;7.80;99.90
52381;DHT22;38310;52.796;6.942;2023-01-04T03:14:04;7.90;99.90
52381;DHT22;38310;52.796;6.942;2023-01-04T03:16:34;8.00;99.90
52381;DHT22;38310;52.796;6.942;2023-01-04T03:19:03;8.00;99.90
52381;DHT22;38310;52.796;6.942;2023-01-04T03:21:35;8.10;99.90
52381;DHT22;38310;52.796;6.942;2023-01-04T03:24:02;8.10;99.90
52381;DHT22;38310;52.796;6.942;2023-01-04T03:26:52;8.00;99.90
52381;DHT22;38310;52.796;6.942;2023-01-04T03:29:42;8.10;99.90
52381;DHT22;38310;52.796;6.942;2023-01-04T03:32:45;8.10;99.90
52381;DHT22;38310;52.796;6.942;2023-01-04T03:35:45;8.20;99.90
52381;DHT22;38310;52.796;6.942;2023-01-04T03:41:29;8.20;99.90
52381;DHT22;38310;52.796;6.942;2023-01-04T03:47:58;8.40;99.90
52381;DHT22;38310;52.796;6.942;2023-01-04T03:50:50;8.50;99.90
52381;DHT22;38310;52.796;6.942;2023-01-04T03:53:18;8.50;99.90
52381;DHT22;38310;52.796;6.942;2023-01-04T03:55:45;8.50;99.90
52381;DHT22;38310;52.796;6.942;2023-01-04T03:58:12;8.60;99.90
52381;DHT22;38310;52.796;6.942;2023-01-04T04:00:37;8.70;99.90
52381;DHT22;38310;52.796;6.942;2023-01-04T04:03:07;8.70;99.90
52381;DHT22;38310;52.796;6.942;2023-01-04T04:05:36;8.70;99.90
52381;DHT22;38310;52.796;6.942;2023-01-04T04:08:21;8.70;99.90
52381;DHT22;38310;52.796;6.942;2023-01-04T04:11:00;8.70;99.90
52381;DHT22;38310;52.796;6.942;2023-01-04T04:13:48;8.80;99.90
52381;DHT22;38310;52.796;6.942;2023-01-04T04:16:14;8.70;99.90
52381;DHT22;38310;52.796;6.942;2023-01-04T04:18:40;8.80;99.90
52381;DHT22;38310;52.796;6.942;2023-01-04T04:21:05;8.80;99.90
52381;DHT22;38310;52.796;6.942;2023-01-04T04:23:31;9.40;99.90
52381;DHT22;38310;52.796;6.942;2023-01-04T04:25:57;8.80;99.90
52381;DHT22;38310;52.796;6.942;2023-01-04T04:28:22;8.90;99.90
52381;DHT22;38310;52.796;6.942;2023-01-04T04:30:49;8.90;99.90
52381;DHT22;38310;52.796;6.942;2023-01-04T04:33:15;8.90;99.90
52381;DHT22;38310;52.796;6.942;2023-01-04T04:35:40;9.00;99.90
52381;DHT22;38310;52.796;6.942;2023-01-04T04:38:06;8.90;99.90
52381;DHT22;38310;52.796;6.942;2023-01-04T04:40:32;9.00;99.90
52381;DHT22;38310;52.796;6.942;2023-01-04T04:43:16;9.00;99.90
52381;DHT22;38310;52.796;6.942;2023-01-04T04:45:41;9.10;99.90
52381;DHT22;38310;52.796;6.942;2023-01-04T04:48:07;9.10;99.90
52381;DHT22;38310;52.796;6.942;2023-01-04T04:50:33;9.10;99.90
52381;DHT22;38310;52.796;6.942;2023-01-04T04:52:58;9.20;99.90
52381;DHT22;38310;52.796;6.942;2023-01-04T04:55:24;9.20;99.90
52381;DHT22;38310;52.796;6.942;2023-01-04T04:57:51;9.20;99.90
52381;DHT22;38310;52.796;6.942;2023-01-04T05:00:17;9.30;99.90
52381;DHT22;38310;52.796;6.942;2023-01-04T05:02:43;9.30;99.90
52381;DHT22;38310;52.796;6.942;2023-01-04T05:05:09;9.30;99.90
52381;DHT22;38310;52.796;6.942;2023-01-04T05:07:35;9.40;99.90
52381;DHT22;38310;52.796;6.942;2023-01-04T05:10:00;9.30;99.90
52381;DHT22;38310;52.796;6.942;2023-01-04T05:12:26;9.30;99.90
52381;DHT22;38310;52.796;6.942;2023-01-04T05:15:10;9.40;99.90
52381;DHT22;38310;52.796;6.942;2023-01-04T05:17:36;9.30;99.90
52381;DHT22;38310;52.796;6.942;2023-01-04T05:20:02;9.40;99.90
52381;DHT22;38310;52.796;6.942;2023-01-04T05:22:28;9.40;99.90
52381;DHT22;38310;52.796;6.942;2023-01-04T05:24:53;9.40;99.90
52381;DHT22;38310;52.796;6.942;2023-01-04T05:27:19;9.40;99.90
52381;DHT22;38310;52.796;6.942;2023-01-04T05:29:45;9.40;99.90
52381;DHT22;38310;52.796;6.942;2023-01-04T05:32:29;8.20;99.90
52381;DHT22;38310;52.796;6.942;2023-01-04T05:34:55;9.50;99.90
52381;DHT22;38310;52.796;6.942;2023-01-04T05:37:20;9.60;99.90
52381;DHT22;38310;52.796;6.942;2023-01-04T05:39:46;9.60;99.90
52381;DHT22;38310;52.796;6.942;2023-01-04T05:42:12;9.70;99.90
52381;DHT22;38310;52.796;6.942;2023-01-04T05:44:53;9.70;99.90
52381;DHT22;38310;52.796;6.942;2023-01-04T05:47:19;9.70;99.90
52381;DHT22;38310;52.796;6.942;2023-01-04T05:49:45;9.80;99.90
52381;DHT22;38310;52.796;6.942;2023-01-04T05:52:11;9.80;99.90
52381;DHT22;38310;52.796;6.942;2023-01-04T05:54:37;9.80;99.90
52381;DHT22;38310;52.796;6.942;2023-01-04T05:57:03;9.80;99.90
52381;DHT22;38310;52.796;6.942;2023-01-04T05:59:28;9.90;99.90
52381;DHT22;38310;52.796;6.942;2023-01-04T06:01:54;9.90;99.90
52381;DHT22;38310;52.796;6.942;2023-01-04T06:04:19;10.00;99.90
52381;DHT22;38310;52.796;6.942;2023-01-04T06:06:45;10.00;99.90
52381;DHT22;38310;52.796;6.942;2023-01-04T06:09:11;10.00;99.90
52381;DHT22;38310;52.796;6.942;2023-01-04T06:11:37;10.00;99.90
52381;DHT22;38310;52.796;6.942;2023-01-04T06:14:02;10.00;99.90
52381;DHT22;38310;52.796;6.942;2023-01-04T06:16:28;10.00;99.90
52381;DHT22;38310;52.796;6.942;2023-01-04T06:18:54;10.00;99.90
52381;DHT22;38310;52.796;6.942;2023-01-04T06:21:19;10.00;99.90
52381;DHT22;38310;52.796;6.942;2023-01-04T06:23:45;10.00;99.90
52381;DHT22;38310;52.796;6.942;2023-01-04T06:26:11;10.00;99.90
52381;DHT22;38310;52.796;6.942;2023-01-04T06:28:37;10.10;99.90
52381;DHT22;38310;52.796;6.942;2023-01-04T06:31:07;10.10;99.90
52381;DHT22;38310;52.796;6.942;2023-01-04T06:33:33;10.10;99.90
52381;DHT22;38310;52.796;6.942;2023-01-04T06:35:59;10.10;99.90
52381;DHT22;38310;52.796;6.942;2023-01-04T06:38:25;10.10;99.90
52381;DHT22;38310;52.796;6.942;2023-01-04T06:40:51;10.10;99.90
52381;DHT22;38310;52.796;6.942;2023-01-04T06:43:17;10.10;99.90
52381;DHT22;38310;52.796;6.942;2023-01-04T06:45:43;10.20;99.90
52381;DHT22;38310;52.796;6.942;2023-01-04T06:48:09;10.20;99.90
52381;DHT22;38310;52.796;6.942;2023-01-04T06:50:35;10.20;99.90
52381;DHT22;38310;52.796;6.942;2023-01-04T06:53:01;10.10;99.90
52381;DHT22;38310;52.796;6.942;2023-01-04T06:55:26;10.10;99.90
52381;DHT22;38310;52.796;6.942;2023-01-04T06:57:57;10.10;99.90
52381;DHT22;38310;52.796;6.942;2023-01-04T07:00:23;10.10;99.90
52381;DHT22;38310;52.796;6.942;2023-01-04T07:02:49;10.20;99.90
52381;DHT22;38310;52.796;6.942;2023-01-04T07:05:15;10.10;99.90
52381;DHT22;38310;52.796;6.942;2023-01-04T07:07:41;10.10;99.90
52381;DHT22;38310;52.796;6.942;2023-01-04T07:10:07;10.10;99.90
52381;DHT22;38310;52.796;6.942;2023-01-04T07:12:33;10.10;99.90
52381;DHT22;38310;52.796;6.942;2023-01-04T07:14:59;10.10;99.90
52381;DHT22;38310;52.796;6.942;2023-01-04T07:17:25;10.10;99.90
52381;DHT22;38310;52.796;6.942;2023-01-04T07:19:51;10.20;99.90
52381;DHT22;38310;52.796;6.942;2023-01-04T07:22:17;10.20;99.90
52381;DHT22;38310;52.796;6.942;2023-01-04T07:24:43;10.20;99.90
52381;DHT22;38310;52.796;6.942;2023-01-04T07:27:12;10.30;99.90
52381;DHT22;38310;52.796;6.942;2023-01-04T07:29:37;10.20;99.90
52381;DHT22;38310;52.796;6.942;2023-01-04T07:32:03;10.40;99.90
52381;DHT22;38310;52.796;6.942;2023-01-04T07:34:29;10.30;99.90
52381;DHT22;38310;52.796;6.942;2023-01-04T07:36:56;10.30;99.90
52381;DHT22;38310;52.796;6.942;2023-01-04T07:39:22;10.30;99.90
52381;DHT22;38310;52.796;6.942;2023-01-04T07:41:48;10.40;99.90
52381;DHT22;38310;52.796;6.942;2023-01-04T07:44:14;10.30;99.90
52381;DHT22;38310;52.796;6.942;2023-01-04T07:46:42;10.30;99.90
52381;DHT22;38310;52.796;6.942;2023-01-04T07:49:14;10.40;99.90
52381;DHT22;38310;52.796;6.942;2023-01-04T07:51:40;10.30;99.90
52381;DHT22;38310;52.796;6.942;2023-01-04T07:54:06;10.30;99.90
52381;DHT22;38310;52.796;6.942;2023-01-04T07:56:32;10.30;99.90
52381;DHT22;38310;52.796;6.942;2023-01-04T07:58:57;10.40;99.90
52381;DHT22;38310;52.796;6.942;2023-01-04T08:01:24;10.40;99.90
52381;DHT22;38310;52.796;6.942;2023-01-04T08:03:51;10.40;99.90
52381;DHT22;38310;52.796;6.942;2023-01-04T08:06:18;10.30;99.90
52381;DHT22;38310;52.796;6.942;2023-01-04T08:08:44;10.40;99.90
52381;DHT22;38310;52.796;6.942;2023-01-04T08:11:13;11.20;99.90
52381;DHT22;38310;52.796;6.942;2023-01-04T08:13:40;10.40;99.90
52381;DHT22;38310;52.796;6.942;2023-01-04T08:16:06;10.40;99.90
52381;DHT22;38310;52.796;6.942;2023-01-04T08:18:32;10.50;99.90
52381;DHT22;38310;52.796;6.942;2023-01-04T08:21:06;10.40;99.90
52381;DHT22;38310;52.796;6.942;2023-01-04T08:23:33;10.40;99.90
52381;DHT22;38310;52.796;6.942;2023-01-04T08:26:10;10.50;99.90
52381;DHT22;38310;52.796;6.942;2023-01-04T08:28:37;10.60;99.90
52381;DHT22;38310;52.796;6.942;2023-01-04T08:31:05;10.60;99.90
52381;DHT22;38310;52.796;6.942;2023-01-04T08:33:31;10.60;99.90
52381;DHT22;38310;52.796;6.942;2023-01-04T08:38:37;10.60;99.90
52381;DHT22;38310;52.796;6.942;2023-01-04T08:41:03;10.60;99.90
52381;DHT22;38310;52.796;6.942;2023-01-04T08:43:29;10.70;99.90
52381;DHT22;38310;52.796;6.942;2023-01-04T08:45:55;10.70;99.90
52381;DHT22;38310;52.796;6.942;2023-01-04T08:48:21;10.70;99.90
52381;DHT22;38310;52.796;6.942;2023-01-04T08:50:47;10.80;99.90
52381;DHT22;38310;52.796;6.942;2023-01-04T08:53:12;10.70;99.90
52381;DHT22;38310;52.796;6.942;2023-01-04T08:55:38;10.70;99.90
52381;DHT22;38310;52.796;6.942;2023-01-04T08:58:04;10.80;99.90
52381;DHT22;38310;52.796;6.942;2023-01-04T09:00:31;10.80;99.90
52381;DHT22;38310;52.796;6.942;2023-01-04T09:02:57;11.50;99.90
52381;DHT22;38310;52.796;6.942;2023-01-04T09:05:23;10.90;99.90
52381;DHT22;38310;52.796;6.942;2023-01-04T09:07:50;10.90;99.90
52381;DHT22;38310;52.796;6.942;2023-01-04T09:10:16;10.80;99.90
52381;DHT22;38310;52.796;6.942;2023-01-04T09:12:42;10.90;99.90
52381;DHT22;38310;52.796;6.942;2023-01-04T09:15:10;9.90;99.90
52381;DHT22;38310;52.796;6.942;2023-01-04T09:17:35;10.90;99.90
52381;DHT22;38310;52.796;6.942;2023-01-04T09:20:01;10.90;99.90
52381;DHT22;38310;52.796;6.942;2023-01-04T09:22:29;10.90;99.90
52381;DHT22;38310;52.796;6.942;2023-01-04T09:24:55;11.00;99.90
52381;DHT22;38310;52.796;6.942;2023-01-04T09:27:21;11.00;99.90
52381;DHT22;38310;52.796;6.942;2023-01-04T09:29:46;10.90;99.90
52381;DHT22;38310;52.796;6.942;2023-01-04T09:32:12;11.00;99.90
52381;DHT22;38310;52.796;6.942;2023-01-04T09:34:38;11.00;99.90
52381;DHT22;38310;52.796;6.942;2023-01-04T09:37:04;11.00;99.90
52381;DHT22;38310;52.796;6.942;2023-01-04T09:39:29;10.90;99.90
52381;DHT22;38310;52.796;6.942;2023-01-04T09:41:58;11.00;99.90
52381;DHT22;38310;52.796;6.942;2023-01-04T09:44:43;11.00;99.90
52381;DHT22;38310;52.796;6.942;2023-01-04T09:55:11;11.00;99.90
52381;DHT22;38310;52.796;6.942;2023-01-04T09:57:36;11.00;99.90
52381;DHT22;38310;52.796;6.942;2023-01-04T10:00:22;11.00;99.90
52381;DHT22;38310;52.796;6.942;2023-01-04T10:03:01;11.00;99.90
52381;DHT22;38310;52.796;6.942;2023-01-04T10:05:31;11.10;99.90
52381;DHT22;38310;52.796;6.942;2023-01-04T10:07:57;11.10;99.90
52381;DHT22;38310;52.796;6.942;2023-01-04T10:13:22;11.10;99.90
52381;DHT22;38310;52.796;6.942;2023-01-04T10:15:52;11.10;99.90
52381;DHT22;38310;52.796;6.942;2023-01-04T10:18:24;11.10;99.90
52381;DHT22;38310;52.796;6.942;2023-01-04T10:24:08;11.10;99.90
52381;DHT22;38310;52.796;6.942;2023-01-04T10:26:41;11.10;99.90
52381;DHT22;38310;52.796;6.942;2023-01-04T10:32:21;11.00;99.90
52381;DHT22;38310;52.796;6.942;2023-01-04T10:34:52;11.10;99.90
52381;DHT22;38310;52.796;6.942;2023-01-04T10:37:21;11.10;99.90
52381;DHT22;38310;52.796;6.942;2023-01-04T10:39:53;11.10;99.90
52381;DHT22;38310;52.796;6.942;2023-01-04T10:42:30;11.10;99.90
52381;DHT22;38310;52.796;6.942;2023-01-04T10:53:26;11.10;99.90
52381;DHT22;38310;52.796;6.942;2023-01-04T10:56:03;11.20;99.90
52381;DHT22;38310;52.796;6.942;2023-01-04T10:58:40;11.20;99.90
52381;DHT22;38310;52.796;6.942;2023-01-04T11:01:37;11.20;99.90
52381;DHT22;38310;52.796;6.942;2023-01-04T11:04:08;11.20;99.90
52381;DHT22;38310;52.796;6.942;2023-01-04T11:06:46;11.20;99.90
52381;DHT22;38310;52.796;6.942;2023-01-04T11:11:44;11.30;99.90
52381;DHT22;38310;52.796;6.942;2023-01-04T11:14:11;11.30;99.90
52381;DHT22;38310;52.796;6.942;2023-01-04T11:16:42;11.30;99.90
52381;DHT22;38310;52.796;6.942;2023-01-04T11:19:09;11.40;99.90
52381;DHT22;38310;52.796;6.942;2023-01-04T11:25:02;11.40;99.90
52381;DHT22;38310;52.796;6.942;2023-01-04T11:27:35;11.50;99.90
52381;DHT22;38310;52.796;6.942;2023-01-04T11:30:25;11.40;99.90
52381;DHT22;38310;52.796;6.942;2023-01-04T11:33:07;11.50;99.90
52381;DHT22;38310;52.796;6.942;2023-01-04T11:35:37;11.50;99.90
52381;DHT22;38310;52.796;6.942;2023-01-04T11:38:22;11.50;99.90
52381;DHT22;38310;52.796;6.942;2023-01-04T11:41:00;11.50;99.90
52381;DHT22;38310;52.796;6.942;2023-01-04T11:43:31;11.50;99.90
52381;DHT22;38310;52.796;6.942;2023-01-04T11:46:04;11.50;99.90
52381;DHT22;38310;52.796;6.942;2023-01-04T11:48:40;11.60;99.90
52381;DHT22;38310;52.796;6.942;2023-01-04T11:51:19;11.50;99.90
52381;DHT22;38310;52.796;6.942;2023-01-04T11:54:02;11.60;99.90
52381;DHT22;38310;52.796;6.942;2023-01-04T11:56:31;11.60;99.90
52381;DHT22;38310;52.796;6.942;2023-01-04T11:59:04;11.70;99.90
52381;DHT22;38310;52.796;6.942;2023-01-04T12:01:34;11.70;99.90
52381;DHT22;38310;52.796;6.942;2023-01-04T12:04:00;11.80;99.90
52381;DHT22;38310;52.796;6.942;2023-01-04T12:06:45;11.70;99.90
52381;DHT22;38310;52.796;6.942;2023-01-04T12:09:14;11.80;99.90
52381;DHT22;38310;52.796;6.942;2023-01-04T12:11:47;11.80;99.90
52381;DHT22;38310;52.796;6.942;2023-01-04T12:14:39;11.90;99.90
52381;DHT22;38310;52.796;6.942;2023-01-04T12:17:27;11.80;99.90
52381;DHT22;38310;52.796;6.942;2023-01-04T12:19:55;11.90;99.90
52381;DHT22;38310;52.796;6.942;2023-01-04T12:24:51;12.00;99.90
52381;DHT22;38310;52.796;6.942;2023-01-04T12:27:18;12.00;99.90
52381;DHT22;38310;52.796;6.942;2023-01-04T12:34:43;12.00;99.90
52381;DHT22;38310;52.796;6.942;2023-01-04T12:37:43;12.00;99.90
52381;DHT22;38310;52.796;6.942;2023-01-04T12:39:56;12.00;99.90
52381;DHT22;38310;52.796;6.942;2023-01-04T12:42:22;12.00;99.90
52381;DHT22;38310;52.796;6.942;2023-01-04T12:52:40;11.90;99.90
52381;DHT22;38310;52.796;6.942;2023-01-04T12:57:50;11.90;99.90
52381;DHT22;38310;52.796;6.942;2023-01-04T13:00:16;11.90;99.90
52381;DHT22;38310;52.796;6.942;2023-01-04T13:02:44;11.90;99.90
52381;DHT22;38310;52.796;6.942;2023-01-04T13:07:56;11.90;99.90
52381;DHT22;38310;52.796;6.942;2023-01-04T13:10:39;11.80;99.90
52381;DHT22;38310;52.796;6.942;2023-01-04T13:13:31;12.60;99.90
52381;DHT22;38310;52.796;6.942;2023-01-04T13:16:21;11.90;99.90
52381;DHT22;38310;52.796;6.942;2023-01-04T13:23:52;11.90;99.90
52381;DHT22;38310;52.796;6.942;2023-01-04T13:26:32;11.90;99.90
52381;DHT22;38310;52.796;6.942;2023-01-04T13:31:58;12.00;99.90
52381;DHT22;38310;52.796;6.942;2023-01-04T13:39:45;12.00;99.90
52381;DHT22;38310;52.796;6.942;2023-01-04T13:42:35;12.00;99.90
52381;DHT22;38310;52.796;6.942;2023-01-04T13:48:08;12.00;99.90
52381;DHT22;38310;52.796;6.942;2023-01-04T13:50:43;12.00;99.90
52381;DHT22;38310;52.796;6.942;2023-01-04T13:53:26;12.00;99.90
52381;DHT22;38310;52.796;6.942;2023-01-04T13:55:57;12.00;99.90
52381;DHT22;38310;52.796;6.942;2023-01-04T13:58:25;11.90;99.90
52381;DHT22;38310;52.796;6.942;2023-01-04T14:01:11;12.00;99.90
52381;DHT22;38310;52.796;6.942;2023-01-04T14:03:57;12.10;99.90
52381;DHT22;38310;52.796;6.942;2023-01-04T14:06:27;12.20;99.90
52381;DHT22;38310;52.796;6.942;2023-01-04T14:08:55;12.10;99.90
52381;DHT22;38310;52.796;6.942;2023-01-04T14:11:34;12.10;99.90
52381;DHT22;38310;52.796;6.942;2023-01-04T14:31:10;12.10;99.90
52381;DHT22;38310;52.796;6.942;2023-01-04T14:33:43;12.20;99.90
52381;DHT22;38310;52.796;6.942;2023-01-04T14:41:21;12.10;99.90
52381;DHT22;38310;52.796;6.942;2023-01-04T14:43:50;12.10;99.90
52381;DHT22;38310;52.796;6.942;2023-01-04T14:46:21;12.10;99.90
52381;DHT22;38310;52.796;6.942;2023-01-04T14:48:47;12.10;99.90
52381;DHT22;38310;52.796;6.942;2023-01-04T14:51:16;12.10;99.90
52381;DHT22;38310;52.796;6.942;2023-01-04T14:53:42;12.20;99.90
52381;DHT22;38310;52.796;6.942;2023-01-04T14:56:12;12.10;99.90
52381;DHT22;38310;52.796;6.942;2023-01-04T14:58:38;12.10;99.90
52381;DHT22;38310;52.796;6.942;2023-01-04T15:01:04;12.00;99.90
52381;DHT22;38310;52.796;6.942;2023-01-04T15:03:30;12.10;99.90
52381;DHT22;38310;52.796;6.942;2023-01-04T15:05:55;12.00;99.90
52381;DHT22;38310;52.796;6.942;2023-01-04T15:08:21;12.00;99.90
52381;DHT22;38310;52.796;6.942;2023-01-04T15:10:47;12.00;99.90
52381;DHT22;38310;52.796;6.942;2023-01-04T15:13:14;12.00;99.90
52381;DHT22;38310;52.796;6.942;2023-01-04T15:15:40;12.00;99.90
52381;DHT22;38310;52.796;6.942;2023-01-04T15:18:06;12.00;99.90
52381;DHT22;38310;52.796;6.942;2023-01-04T15:20:32;11.90;99.90
52381;DHT22;38310;52.796;6.942;2023-01-04T15:22:58;12.00;99.90
52381;DHT22;38310;52.796;6.942;2023-01-04T15:25:24;11.90;99.90
52381;DHT22;38310;52.796;6.942;2023-01-04T15:27:51;11.90;99.90
52381;DHT22;38310;52.796;6.942;2023-01-04T15:30:17;12.00;99.90
52381;DHT22;38310;52.796;6.942;2023-01-04T15:32:43;11.90;99.90
52381;DHT22;38310;52.796;6.942;2023-01-04T15:35:09;11.90;99.90
52381;DHT22;38310;52.796;6.942;2023-01-04T15:37:35;12.00;99.90
52381;DHT22;38310;52.796;6.942;2023-01-04T15:40:01;12.00;99.90
52381;DHT22;38310;52.796;6.942;2023-01-04T15:42:27;12.10;99.90
52381;DHT22;38310;52.796;6.942;2023-01-04T15:45:11;12.00;99.90
52381;DHT22;38310;52.796;6.942;2023-01-04T15:47:37;12.10;99.90
52381;DHT22;38310;52.796;6.942;2023-01-04T15:50:03;12.10;99.90
52381;DHT22;38310;52.796;6.942;2023-01-04T15:52:28;12.00;99.90
52381;DHT22;38310;52.796;6.942;2023-01-04T15:54:54;12.10;99.90
52381;DHT22;38310;52.796;6.942;2023-01-04T15:57:20;12.00;99.90
52381;DHT22;38310;52.796;6.942;2023-01-04T15:59:46;12.00;99.90
52381;DHT22;38310;52.796;6.942;2023-01-04T16:02:13;12.00;99.90
52381;DHT22;38310;52.796;6.942;2023-01-04T16:04:39;12.00;99.90
52381;DHT22;38310;52.796;6.942;2023-01-04T16:07:04;12.00;99.90
52381;DHT22;38310;52.796;6.942;2023-01-04T16:09:30;12.00;99.90
52381;DHT22;38310;52.796;6.942;2023-01-04T16:11:56;12.00;99.90
52381;DHT22;38310;52.796;6.942;2023-01-04T16:14:40;12.00;99.90
52381;DHT22;38310;52.796;6.942;2023-01-04T16:17:06;12.00;99.90
52381;DHT22;38310;52.796;6.942;2023-01-04T16:19:31;12.00;99.90
52381;DHT22;38310;52.796;6.942;2023-01-04T16:21:59;11.90;99.90
52381;DHT22;38310;52.796;6.942;2023-01-04T16:24:25;12.00;99.90
52381;DHT22;38310;52.796;6.942;2023-01-04T16:26:50;12.00;99.90
52381;DHT22;38310;52.796;6.942;2023-01-04T16:29:16;12.00;99.90
52381;DHT22;38310;52.796;6.942;2023-01-04T16:31:44;11.90;99.90
52381;DHT22;38310;52.796;6.942;2023-01-04T16:34:13;12.00;99.90
52381;DHT22;38310;52.796;6.942;2023-01-04T16:36:39;11.90;99.90
52381;DHT22;38310;52.796;6.942;2023-01-04T16:39:06;12.00;99.90
52381;DHT22;38310;52.796;6.942;2023-01-04T16:41:32;11.90;99.90
52381;DHT22;38310;52.796;6.942;2023-01-04T16:43:59;11.80;99.90
52381;DHT22;38310;52.796;6.942;2023-01-04T16:46:35;11.80;99.90
52381;DHT22;38310;52.796;6.942;2023-01-04T16:49:06;11.80;99.90
52381;DHT22;38310;52.796;6.942;2023-01-04T16:51:36;11.80;99.90
52381;DHT22;38310;52.796;6.942;2023-01-04T16:54:04;11.80;99.90
52381;DHT22;38310;52.796;6.942;2023-01-04T16:56:31;11.80;99.90
52381;DHT22;38310;52.796;6.942;2023-01-04T16:58:57;11.70;99.90
52381;DHT22;38310;52.796;6.942;2023-01-04T17:01:31;11.70;99.90
52381;DHT22;38310;52.796;6.942;2023-01-04T17:03:57;11.80;99.90
52381;DHT22;38310;52.796;6.942;2023-01-04T17:06:28;11.70;99.90
52381;DHT22;38310;52.796;6.942;2023-01-04T17:08:56;11.70;99.90
52381;DHT22;38310;52.796;6.942;2023-01-04T17:11:27;11.70;99.90
52381;DHT22;38310;52.796;6.942;2023-01-04T17:13:54;11.70;99.90
52381;DHT22;38310;52.796;6.942;2023-01-04T17:16:20;11.70;99.90
52381;DHT22;38310;52.796;6.942;2023-01-04T17:18:51;11.70;99.90
52381;DHT22;38310;52.796;6.942;2023-01-04T17:21:20;11.70;99.90
52381;DHT22;38310;52.796;6.942;2023-01-04T17:23:49;11.70;99.90
52381;DHT22;38310;52.796;6.942;2023-01-04T17:26:18;11.70;99.90
52381;DHT22;38310;52.796;6.942;2023-01-04T17:28:45;11.70;99.90
52381;DHT22;38310;52.796;6.942;2023-01-04T17:33:38;11.60;99.90
52381;DHT22;38310;52.796;6.942;2023-01-04T17:36:06;11.70;99.90
52381;DHT22;38310;52.796;6.942;2023-01-04T17:38:32;11.70;99.90
52381;DHT22;38310;52.796;6.942;2023-01-04T17:41:17;11.70;99.90
52381;DHT22;38310;52.796;6.942;2023-01-04T17:43:45;11.60;99.90
52381;DHT22;38310;52.796;6.942;2023-01-04T17:46:16;11.60;99.90
52381;DHT22;38310;52.796;6.942;2023-01-04T17:48:43;11.60;99.90
52381;DHT22;38310;52.796;6.942;2023-01-04T17:51:20;11.60;99.90
52381;DHT22;38310;52.796;6.942;2023-01-04T17:53:47;11.60;99.90
52381;DHT22;38310;52.796;6.942;2023-01-04T17:56:15;11.60;99.90
52381;DHT22;38310;52.796;6.942;2023-01-04T17:58:43;11.60;99.90
52381;DHT22;38310;52.796;6.942;2023-01-04T18:01:14;11.50;99.90